sensor_id;sensor_type;location;lat;lon;timestamp;pressure;altitude;pressure_sealevel;temperature;humidity
67840;BME280;54636;51.684;5.142;2022-12-31T00:01:15;100351.44;;;12.23;100.00
67840;BME280;54636;51.684;5.142;2022-12-31T00:03:41;100337.09;;;12.16;100.00
67840;BME280;54636;51.684;5.142;2022-12-31T00:06:19;100345.75;;;12.20;100.00
67840;BME280;54636;51.684;5.142;2022-12-31T00:08:45;100348.50;;;12.15;100.00
67840;BME280;54636;51.684;5.142;2022-12-31T00:11:11;100339.78;;;12.28;100.00
67840;BME280;54636;51.684;5.142;2022-12-31T00:13:37;100341.69;;;12.38;100.00
67840;BME280;54636;51.684;5.142;2022-12-31T00:16:08;100324.16;;;12.34;100.00
67840;BME280;54636;51.684;5.142;2022-12-31T00:18:34;100345.66;;;12.37;100.00
67840;BME280;54636;51.684;5.142;2022-12-31T00:21:03;100363.22;;;12.36;100.00
67840;BME280;54636;51.684;5.142;2022-12-31T00:23:29;100372.69;;;12.30;100.00
67840;BME280;54636;51.684;5.142;2022-12-31T00:25:54;100373.47;;;12.25;100.00
67840;BME280;54636;51.684;5.142;2022-12-31T00:28:19;100376.41;;;12.27;100.00
67840;BME280;54636;51.684;5.142;2022-12-31T00:30:45;100369.53;;;12.14;100.00
67840;BME280;54636;51.684;5.142;2022-12-31T00:33:10;100348.88;;;11.83;100.00
67840;BME280;54636;51.684;5.142;2022-12-31T00:35:36;100357.75;;;11.73;100.00
67840;BME280;54636;51.684;5.142;2022-12-31T00:38:01;100365.22;;;11.67;100.00
67840;BME280;54636;51.684;5.142;2022-12-31T00:40:28;100375.41;;;11.49;100.00
67840;BME280;54636;51.684;5.142;2022-12-31T00:42:53;100361.31;;;11.45;100.00
67840;BME280;54636;51.684;5.142;2022-12-31T00:45:18;100306.25;;;10.95;100.00
67840;BME280;54636;51.684;5.142;2022-12-31T00:47:44;100352.19;;;11.26;100.00
67840;BME280;54636;51.684;5.142;2022-12-31T00:50:09;100338.84;;;11.06;100.00
67840;BME280;54636;51.684;5.142;2022-12-31T00:52:35;100352.44;;;11.17;100.00
67840;BME280;54636;51.684;5.142;2022-12-31T00:55:00;100338.84;;;11.11;100.00
67840;BME280;54636;51.684;5.142;2022-12-31T00:57:25;100329.19;;;11.16;100.00
67840;BME280;54636;51.684;5.142;2022-12-31T00:59:51;100325.00;;;11.09;100.00
67840;BME280;54636;51.684;5.142;2022-12-31T01:02:16;100335.38;;;11.11;100.00
67840;BME280;54636;51.684;5.142;2022-12-31T01:04:41;100331.94;;;11.05;100.00
67840;BME280;54636;51.684;5.142;2022-12-31T01:07:07;100323.78;;;11.10;100.00
67840;BME280;54636;51.684;5.142;2022-12-31T01:09:32;100262.78;;;10.67;100.00
67840;BME280;54636;51.684;5.142;2022-12-31T01:11:58;100325.03;;;11.04;100.00
67840;BME280;54636;51.684;5.142;2022-12-31T01:14:23;100282.06;;;10.74;100.00
67840;BME280;54636;51.684;5.142;2022-12-31T01:16:51;100316.13;;;10.98;100.00
67840;BME280;54636;51.684;5.142;2022-12-31T01:19:20;100335.91;;;11.04;100.00
67840;BME280;54636;51.684;5.142;2022-12-31T01:21:47;100305.03;;;10.84;100.00
67840;BME280;54636;51.684;5.142;2022-12-31T01:24:13;100335.66;;;11.02;100.00
67840;BME280;54636;51.684;5.142;2022-12-31T01:26:38;100336.91;;;11.01;100.00
67840;BME280;54636;51.684;5.142;2022-12-31T01:29:05;100332.94;;;11.02;100.00
67840;BME280;54636;51.684;5.142;2022-12-31T01:31:32;100335.41;;;11.00;100.00
67840;BME280;54636;51.684;5.142;2022-12-31T01:33:58;100358.88;;;11.03;100.00
67840;BME280;54636;51.684;5.142;2022-12-31T01:36:26;100356.16;;;11.03;100.00
67840;BME280;54636;51.684;5.142;2022-12-31T01:38:56;100367.03;;;10.97;100.00
67840;BME280;54636;51.684;5.142;2022-12-31T01:41:25;100372.97;;;11.01;100.00
67840;BME280;54636;51.684;5.142;2022-12-31T01:43:58;100364.56;;;10.94;100.00
67840;BME280;54636;51.684;5.142;2022-12-31T01:46:45;100357.13;;;10.72;100.00
67840;BME280;54636;51.684;5.142;2022-12-31T01:49:31;100396.91;;;10.92;100.00
67840;BME280;54636;51.684;5.142;2022-12-31T01:52:12;100420.66;;;11.02;100.00
67840;BME280;54636;51.684;5.142;2022-12-31T01:54:52;100401.34;;;10.89;100.00
67840;BME280;54636;51.684;5.142;2022-12-31T01:57:21;100352.69;;;10.91;100.00
67840;BME280;54636;51.684;5.142;2022-12-31T01:59:48;100340.09;;;10.99;100.00
67840;BME280;54636;51.684;5.142;2022-12-31T02:02:14;100354.44;;;11.00;100.00
67840;BME280;54636;51.684;5.142;2022-12-31T02:04:40;100345.28;;;10.97;100.00
67840;BME280;54636;51.684;5.142;2022-12-31T02:07:07;100356.41;;;10.94;100.00
67840;BME280;54636;51.684;5.142;2022-12-31T02:09:36;100340.59;;;10.86;100.00
67840;BME280;54636;51.684;5.142;2022-12-31T02:12:03;100358.88;;;10.80;100.00
67840;BME280;54636;51.684;5.142;2022-12-31T02:14:34;100386.28;;;10.88;100.00
67840;BME280;54636;51.684;5.142;2022-12-31T02:22:50;100395.94;;;10.95;100.00
67840;BME280;54636;51.684;5.142;2022-12-31T02:31:11;100385.78;;;10.89;100.00
67840;BME280;54636;51.684;5.142;2022-12-31T02:33:43;100390.50;;;10.95;100.00
67840;BME280;54636;51.684;5.142;2022-12-31T02:36:17;100375.91;;;10.92;100.00
67840;BME280;54636;51.684;5.142;2022-12-31T02:38:46;100378.88;;;10.88;100.00
67840;BME280;54636;51.684;5.142;2022-12-31T02:41:14;100386.06;;;10.97;100.00
67840;BME280;54636;51.684;5.142;2022-12-31T02:44:00;100389.75;;;10.94;100.00
67840;BME280;54636;51.684;5.142;2022-12-31T02:46:41;100373.44;;;10.83;100.00
67840;BME280;54636;51.684;5.142;2022-12-31T02:49:13;100401.13;;;10.93;100.00
67840;BME280;54636;51.684;5.142;2022-12-31T02:52:05;100392.44;;;10.83;100.00
67840;BME280;54636;51.684;5.142;2022-12-31T03:02:29;100385.78;;;10.84;100.00
67840;BME280;54636;51.684;5.142;2022-12-31T03:04:56;100391.47;;;10.86;100.00
67840;BME280;54636;51.684;5.142;2022-12-31T03:07:30;100391.47;;;10.86;100.00
67840;BME280;54636;51.684;5.142;2022-12-31T03:09:56;100395.66;;;10.87;100.00
67840;BME280;54636;51.684;5.142;2022-12-31T03:12:25;100391.47;;;10.86;100.00
67840;BME280;54636;51.684;5.142;2022-12-31T03:15:11;100342.50;;;10.52;100.00
67840;BME280;54636;51.684;5.142;2022-12-31T03:20:22;100386.78;;;10.86;100.00
67840;BME280;54636;51.684;5.142;2022-12-31T03:23:08;100363.31;;;10.89;100.00
67840;BME280;54636;51.684;5.142;2022-12-31T03:25:34;100367.03;;;10.86;100.00
67840;BME280;54636;51.684;5.142;2022-12-31T03:28:07;100342.53;;;10.69;100.00
67840;BME280;54636;51.684;5.142;2022-12-31T03:30:35;100364.31;;;10.86;100.00
67840;BME280;54636;51.684;5.142;2022-12-31T03:33:03;100360.84;;;10.85;100.00
67840;BME280;54636;51.684;5.142;2022-12-31T03:35:29;100367.03;;;10.86;100.00
67840;BME280;54636;51.684;5.142;2022-12-31T03:37:55;100369.00;;;10.85;100.00
67840;BME280;54636;51.684;5.142;2022-12-31T03:40:23;100364.28;;;10.75;100.00
67840;BME280;54636;51.684;5.142;2022-12-31T03:42:49;100366.75;;;10.73;100.00
67840;BME280;54636;51.684;5.142;2022-12-31T03:45:15;100385.03;;;10.83;100.00
67840;BME280;54636;51.684;5.142;2022-12-31T03:47:40;100365.28;;;10.72;100.00
67840;BME280;54636;51.684;5.142;2022-12-31T03:50:08;100360.81;;;10.69;100.00
67840;BME280;54636;51.684;5.142;2022-12-31T03:52:33;100378.38;;;10.84;100.00
67840;BME280;54636;51.684;5.142;2022-12-31T03:54:59;100377.16;;;10.85;100.00
67840;BME280;54636;51.684;5.142;2022-12-31T03:57:26;100357.13;;;10.72;100.00
67840;BME280;54636;51.684;5.142;2022-12-31T03:59:51;100390.00;;;10.85;100.00
67840;BME280;54636;51.684;5.142;2022-12-31T04:02:17;100346.19;;;10.44;100.00
67840;BME280;54636;51.684;5.142;2022-12-31T04:04:42;100379.59;;;10.72;100.00
67840;BME280;54636;51.684;5.142;2022-12-31T04:07:08;100387.75;;;10.72;100.00
67840;BME280;54636;51.684;5.142;2022-12-31T04:09:33;100347.72;;;10.62;100.00
67840;BME280;54636;51.684;5.142;2022-12-31T04:11:58;100377.63;;;10.84;100.00
67840;BME280;54636;51.684;5.142;2022-12-31T04:14:24;100335.38;;;10.55;100.00
67840;BME280;54636;51.684;5.142;2022-12-31T04:16:49;100342.31;;;10.73;100.00
67840;BME280;54636;51.684;5.142;2022-12-31T04:19:14;100361.09;;;10.82;100.00
67840;BME280;54636;51.684;5.142;2022-12-31T04:21:40;100366.53;;;10.87;100.00
67840;BME280;54636;51.684;5.142;2022-12-31T04:24:06;100360.59;;;10.89;100.00
67840;BME280;54636;51.684;5.142;2022-12-31T04:26:32;100354.19;;;10.86;100.00
67840;BME280;54636;51.684;5.142;2022-12-31T04:28:57;100350.97;;;10.88;100.00
67840;BME280;54636;51.684;5.142;2022-12-31T04:31:23;100350.22;;;10.87;100.00
67840;BME280;54636;51.684;5.142;2022-12-31T04:33:48;100352.19;;;10.87;100.00
67840;BME280;54636;51.684;5.142;2022-12-31T04:36:13;100353.69;;;10.88;100.00
67840;BME280;54636;51.684;5.142;2022-12-31T04:38:39;100344.28;;;10.78;100.00
67840;BME280;54636;51.684;5.142;2022-12-31T04:41:04;100364.06;;;10.89;100.00
67840;BME280;54636;51.684;5.142;2022-12-31T04:43:44;100354.19;;;10.92;100.00
67840;BME280;54636;51.684;5.142;2022-12-31T04:46:10;100365.28;;;10.88;100.00
67840;BME280;54636;51.684;5.142;2022-12-31T04:48:35;100351.22;;;10.90;100.00
67840;BME280;54636;51.684;5.142;2022-12-31T04:51:00;100362.81;;;10.91;100.00
67840;BME280;54636;51.684;5.142;2022-12-31T04:53:26;100350.47;;;10.84;100.00
67840;BME280;54636;51.684;5.142;2022-12-31T04:55:51;100369.75;;;10.97;100.00
67840;BME280;54636;51.684;5.142;2022-12-31T04:58:17;100362.34;;;10.92;100.00
67840;BME280;54636;51.684;5.142;2022-12-31T05:00:44;100357.16;;;10.94;100.00
67840;BME280;54636;51.684;5.142;2022-12-31T05:03:11;100370.72;;;11.05;100.00
67840;BME280;54636;51.684;5.142;2022-12-31T05:05:40;100373.44;;;11.05;100.00
67840;BME280;54636;51.684;5.142;2022-12-31T05:08:08;100384.31;;;11.11;100.00
67840;BME280;54636;51.684;5.142;2022-12-31T05:10:34;100356.66;;;10.96;100.00
67840;BME280;54636;51.684;5.142;2022-12-31T05:12:59;100343.31;;;10.92;100.00
67840;BME280;54636;51.684;5.142;2022-12-31T05:15:25;100369.47;;;11.17;100.00
67840;BME280;54636;51.684;5.142;2022-12-31T05:17:50;100365.78;;;11.20;100.00
67840;BME280;54636;51.684;5.142;2022-12-31T05:20:15;100350.22;;;11.04;100.00
67840;BME280;54636;51.684;5.142;2022-12-31T05:22:41;100367.00;;;11.19;100.00
67840;BME280;54636;51.684;5.142;2022-12-31T05:25:07;100312.69;;;10.75;100.00
67840;BME280;54636;51.684;5.142;2022-12-31T05:27:33;100366.28;;;11.08;100.00
67840;BME280;54636;51.684;5.142;2022-12-31T05:29:58;100380.09;;;11.15;100.00
67840;BME280;54636;51.684;5.142;2022-12-31T05:32:24;100373.44;;;11.16;100.00
67840;BME280;54636;51.684;5.142;2022-12-31T05:34:50;100376.16;;;11.16;100.00
67840;BME280;54636;51.684;5.142;2022-12-31T05:37:16;100315.66;;;10.82;100.00
67840;BME280;54636;51.684;5.142;2022-12-31T05:39:41;100395.19;;;11.28;100.00
67840;BME280;54636;51.684;5.142;2022-12-31T05:42:06;100379.63;;;11.22;100.00
67840;BME280;54636;51.684;5.142;2022-12-31T05:44:32;100374.91;;;11.45;100.00
67840;BME280;54636;51.684;5.142;2022-12-31T05:46:57;100334.13;;;11.29;100.00
67840;BME280;54636;51.684;5.142;2022-12-31T05:49:22;100374.13;;;11.67;100.00
67840;BME280;54636;51.684;5.142;2022-12-31T05:51:48;100358.31;;;11.60;100.00
67840;BME280;54636;51.684;5.142;2022-12-31T05:54:13;100341.53;;;11.45;100.00
67840;BME280;54636;51.684;5.142;2022-12-31T05:56:38;100387.19;;;11.74;100.00
67840;BME280;54636;51.684;5.142;2022-12-31T05:59:04;100395.84;;;11.73;100.00
67840;BME280;54636;51.684;5.142;2022-12-31T06:01:29;100388.22;;;11.77;100.00
67840;BME280;54636;51.684;5.142;2022-12-31T06:03:54;100374.34;;;11.75;100.00
67840;BME280;54636;51.684;5.142;2022-12-31T06:06:20;100383.97;;;11.87;100.00
67840;BME280;54636;51.684;5.142;2022-12-31T06:08:50;100366.16;;;11.86;100.00
67840;BME280;54636;51.684;5.142;2022-12-31T06:11:15;100357.78;;;11.78;100.00
67840;BME280;54636;51.684;5.142;2022-12-31T06:13:40;100384.41;;;12.08;100.00
67840;BME280;54636;51.684;5.142;2022-12-31T06:16:08;100394.31;;;12.05;100.00
67840;BME280;54636;51.684;5.142;2022-12-31T06:18:33;100409.38;;;12.17;100.00
67840;BME280;54636;51.684;5.142;2022-12-31T06:20:59;100399.72;;;12.22;100.00
67840;BME280;54636;51.684;5.142;2022-12-31T06:23:25;100393.03;;;12.23;100.00
67840;BME280;54636;51.684;5.142;2022-12-31T06:25:50;100397.16;;;12.35;100.00
67840;BME280;54636;51.684;5.142;2022-12-31T06:28:16;100404.06;;;12.42;100.00
67840;BME280;54636;51.684;5.142;2022-12-31T06:30:41;100403.06;;;12.45;100.00
67840;BME280;54636;51.684;5.142;2022-12-31T06:33:06;100409.22;;;12.51;100.00
67840;BME280;54636;51.684;5.142;2022-12-31T06:35:32;100401.78;;;12.51;100.00
67840;BME280;54636;51.684;5.142;2022-12-31T06:37:57;100400.47;;;12.64;100.00
67840;BME280;54636;51.684;5.142;2022-12-31T06:40:23;100390.75;;;12.74;100.00
67840;BME280;54636;51.684;5.142;2022-12-31T06:42:48;100360.66;;;12.55;100.00
67840;BME280;54636;51.684;5.142;2022-12-31T06:45:14;100405.06;;;12.85;100.00
67840;BME280;54636;51.684;5.142;2022-12-31T06:47:39;100394.66;;;12.84;100.00
67840;BME280;54636;51.684;5.142;2022-12-31T06:50:05;100362.09;;;12.62;100.00
67840;BME280;54636;51.684;5.142;2022-12-31T06:52:31;100358.88;;;12.63;100.00
67840;BME280;54636;51.684;5.142;2022-12-31T06:54:57;100383.75;;;12.84;100.00
67840;BME280;54636;51.684;5.142;2022-12-31T06:57:23;100392.84;;;12.98;100.00
67840;BME280;54636;51.684;5.142;2022-12-31T06:59:49;100382.19;;;12.94;100.00
67840;BME280;54636;51.684;5.142;2022-12-31T07:08:14;100402.63;;;13.12;100.00
67840;BME280;54636;51.684;5.142;2022-12-31T07:11:04;100411.78;;;13.14;100.00
67840;BME280;54636;51.684;5.142;2022-12-31T07:16:50;100424.63;;;13.25;100.00
67840;BME280;54636;51.684;5.142;2022-12-31T07:21:50;100415.75;;;13.49;100.00
67840;BME280;54636;51.684;5.142;2022-12-31T07:24:17;100400.25;;;13.33;100.00
67840;BME280;54636;51.684;5.142;2022-12-31T07:29:41;100403.56;;;13.20;100.00
67840;BME280;54636;51.684;5.142;2022-12-31T07:40:59;100358.75;;;13.10;100.00
67840;BME280;54636;51.684;5.142;2022-12-31T07:43:45;100360.97;;;13.17;100.00
67840;BME280;54636;51.684;5.142;2022-12-31T07:46:21;100345.41;;;13.36;100.00
67840;BME280;54636;51.684;5.142;2022-12-31T07:48:50;100333.09;;;13.30;100.00
67840;BME280;54636;51.684;5.142;2022-12-31T07:51:16;100357.13;;;13.31;100.00
67840;BME280;54636;51.684;5.142;2022-12-31T07:53:41;100402.97;;;13.33;100.00
67840;BME280;54636;51.684;5.142;2022-12-31T07:56:08;100448.66;;;13.27;100.00
67840;BME280;54636;51.684;5.142;2022-12-31T08:01:15;100440.78;;;13.12;100.00
67840;BME280;54636;51.684;5.142;2022-12-31T08:04:04;100485.66;;;13.11;100.00
67840;BME280;54636;51.684;5.142;2022-12-31T08:12:31;100469.63;;;12.49;100.00
67840;BME280;54636;51.684;5.142;2022-12-31T08:14:57;100492.94;;;12.39;100.00
67840;BME280;54636;51.684;5.142;2022-12-31T08:17:23;100506.81;;;12.36;100.00
67840;BME280;54636;51.684;5.142;2022-12-31T08:19:48;100471.97;;;12.29;100.00
67840;BME280;54636;51.684;5.142;2022-12-31T08:22:38;100490.28;;;12.28;100.00
67840;BME280;54636;51.684;5.142;2022-12-31T08:30:20;100519.91;;;12.48;100.00
67840;BME280;54636;51.684;5.142;2022-12-31T08:41:31;100542.31;;;12.88;100.00
67840;BME280;54636;51.684;5.142;2022-12-31T08:44:23;100529.44;;;12.89;100.00
67840;BME280;54636;51.684;5.142;2022-12-31T08:49:29;100539.75;;;13.01;100.00
67840;BME280;54636;51.684;5.142;2022-12-31T08:51:56;100544.19;;;13.10;100.00
67840;BME280;54636;51.684;5.142;2022-12-31T08:54:22;100562.50;;;13.21;100.00
67840;BME280;54636;51.684;5.142;2022-12-31T08:57:08;100570.16;;;13.28;100.00
67840;BME280;54636;51.684;5.142;2022-12-31T09:07:25;100575.81;;;13.35;100.00
67840;BME280;54636;51.684;5.142;2022-12-31T09:10:22;100588.13;;;13.47;100.00
67840;BME280;54636;51.684;5.142;2022-12-31T09:15:39;100595.81;;;13.49;100.00
67840;BME280;54636;51.684;5.142;2022-12-31T09:18:07;100585.69;;;13.44;100.00
67840;BME280;54636;51.684;5.142;2022-12-31T09:20:34;100604.50;;;13.47;100.00
67840;BME280;54636;51.684;5.142;2022-12-31T09:23:00;100603.03;;;13.46;100.00
67840;BME280;54636;51.684;5.142;2022-12-31T09:25:27;100609.19;;;13.52;100.00
67840;BME280;54636;51.684;5.142;2022-12-31T09:31:00;100622.03;;;13.63;100.00
67840;BME280;54636;51.684;5.142;2022-12-31T09:36:40;100626.81;;;13.51;100.00
67840;BME280;54636;51.684;5.142;2022-12-31T09:50:35;100628.97;;;13.64;100.00
67840;BME280;54636;51.684;5.142;2022-12-31T10:06:31;100650.25;;;13.71;100.00
67840;BME280;54636;51.684;5.142;2022-12-31T10:31:06;100641.88;;;13.99;100.00
67840;BME280;54636;51.684;5.142;2022-12-31T10:36:26;100615.31;;;14.00;100.00
67840;BME280;54636;51.684;5.142;2022-12-31T10:39:02;100631.72;;;13.94;100.00
67840;BME280;54636;51.684;5.142;2022-12-31T11:00:15;100648.25;;;14.07;100.00
67840;BME280;54636;51.684;5.142;2022-12-31T11:08:52;100639.06;;;14.10;100.00
67840;BME280;54636;51.684;5.142;2022-12-31T11:19:04;100638.84;;;14.33;100.00
67840;BME280;54636;51.684;5.142;2022-12-31T11:24:13;100643.97;;;14.17;100.00
67840;BME280;54636;51.684;5.142;2022-12-31T11:29:30;100649.38;;;14.53;100.00
67840;BME280;54636;51.684;5.142;2022-12-31T11:37:28;100662.63;;;14.43;100.00
67840;BME280;54636;51.684;5.142;2022-12-31T11:48:27;100666.56;;;14.48;100.00
67840;BME280;54636;51.684;5.142;2022-12-31T11:56:36;100675.91;;;14.28;100.00
67840;BME280;54636;51.684;5.142;2022-12-31T11:59:07;100674.78;;;14.12;100.00
67840;BME280;54636;51.684;5.142;2022-12-31T12:04:17;100676.78;;;14.12;100.00
67840;BME280;54636;51.684;5.142;2022-12-31T12:06:42;100659.47;;;14.04;100.00
67840;BME280;54636;51.684;5.142;2022-12-31T12:09:14;100671.34;;;14.06;100.00
67840;BME280;54636;51.684;5.142;2022-12-31T12:11:41;100674.00;;;14.17;100.00
67840;BME280;54636;51.684;5.142;2022-12-31T12:14:36;100654.06;;;13.93;100.00
67840;BME280;54636;51.684;5.142;2022-12-31T12:17:06;100671.94;;;13.94;100.00
67840;BME280;54636;51.684;5.142;2022-12-31T12:19:33;100659.00;;;14.00;100.00
67840;BME280;54636;51.684;5.142;2022-12-31T12:22:08;100642.88;;;13.96;100.00
67840;BME280;54636;51.684;5.142;2022-12-31T12:24:34;100652.56;;;13.97;100.00
67840;BME280;54636;51.684;5.142;2022-12-31T12:26:59;100666.63;;;14.07;100.00
67840;BME280;54636;51.684;5.142;2022-12-31T12:29:33;100664.88;;;14.09;100.00
67840;BME280;54636;51.684;5.142;2022-12-31T12:32:18;100666.59;;;14.12;100.00
67840;BME280;54636;51.684;5.142;2022-12-31T12:34:44;100668.66;;;14.01;100.00
67840;BME280;54636;51.684;5.142;2022-12-31T12:37:36;100655.22;;;14.08;100.00
67840;BME280;54636;51.684;5.142;2022-12-31T12:40:05;100656.72;;;14.04;100.00
67840;BME280;54636;51.684;5.142;2022-12-31T12:42:31;100654.19;;;14.11;100.00
67840;BME280;54636;51.684;5.142;2022-12-31T12:45:04;100643.81;;;14.04;100.00
67840;BME280;54636;51.684;5.142;2022-12-31T12:47:31;100631.50;;;13.92;100.00
67840;BME280;54636;51.684;5.142;2022-12-31T12:49:57;100639.91;;;13.94;100.00
67840;BME280;54636;51.684;5.142;2022-12-31T12:55:50;100666.75;;;14.26;100.00
67840;BME280;54636;51.684;5.142;2022-12-31T13:06:27;100665.31;;;14.19;100.00
67840;BME280;54636;51.684;5.142;2022-12-31T13:12:03;100677.78;;;14.09;100.00
67840;BME280;54636;51.684;5.142;2022-12-31T13:19:56;100677.09;;;14.03;100.00
67840;BME280;54636;51.684;5.142;2022-12-31T13:22:31;100674.84;;;14.07;100.00
67840;BME280;54636;51.684;5.142;2022-12-31T13:25:25;100658.72;;;14.03;100.00
67840;BME280;54636;51.684;5.142;2022-12-31T13:27:56;100654.81;;;13.93;100.00
67840;BME280;54636;51.684;5.142;2022-12-31T13:30:27;100635.97;;;13.90;100.00
67840;BME280;54636;51.684;5.142;2022-12-31T13:32:59;100656.72;;;14.04;100.00
67840;BME280;54636;51.684;5.142;2022-12-31T13:35:36;100658.53;;;13.96;100.00
67840;BME280;54636;51.684;5.142;2022-12-31T13:38:15;100644.44;;;13.86;100.00
67840;BME280;54636;51.684;5.142;2022-12-31T13:41:01;100663.34;;;14.14;100.00
67840;BME280;54636;51.684;5.142;2022-12-31T13:49:02;100678.34;;;14.32;100.00
67840;BME280;54636;51.684;5.142;2022-12-31T13:51:50;100660.19;;;14.34;100.00
67840;BME280;54636;51.684;5.142;2022-12-31T13:54:47;100668.84;;;14.44;100.00
67840;BME280;54636;51.684;5.142;2022-12-31T13:57:35;100670.78;;;14.49;100.00
67840;BME280;54636;51.684;5.142;2022-12-31T14:03:02;100665.66;;;14.64;100.00
67840;BME280;54636;51.684;5.142;2022-12-31T14:05:57;100667.66;;;14.64;100.00
67840;BME280;54636;51.684;5.142;2022-12-31T14:08:25;100658.81;;;14.52;100.00
67840;BME280;54636;51.684;5.142;2022-12-31T14:13:46;100670.13;;;14.67;100.00
67840;BME280;54636;51.684;5.142;2022-12-31T14:19:43;100657.94;;;14.68;100.00
67840;BME280;54636;51.684;5.142;2022-12-31T14:28:47;100681.00;;;14.73;100.00
67840;BME280;54636;51.684;5.142;2022-12-31T14:31:19;100691.59;;;14.82;100.00
67840;BME280;54636;51.684;5.142;2022-12-31T14:37:35;100671.72;;;14.81;100.00
67840;BME280;54636;51.684;5.142;2022-12-31T14:43:19;100688.13;;;14.81;100.00
67840;BME280;54636;51.684;5.142;2022-12-31T14:48:54;100674.69;;;14.83;100.00
67840;BME280;54636;51.684;5.142;2022-12-31T14:51:28;100689.59;;;14.82;100.00
67840;BME280;54636;51.684;5.142;2022-12-31T14:53:56;100688.69;;;14.74;100.00
67840;BME280;54636;51.684;5.142;2022-12-31T14:56:43;100669.50;;;14.80;99.37
67840;BME280;54636;51.684;5.142;2022-12-31T14:59:29;100712.28;;;14.77;100.00
67840;BME280;54636;51.684;5.142;2022-12-31T15:01:56;100704.81;;;14.78;100.00
67840;BME280;54636;51.684;5.142;2022-12-31T15:04:43;100685.91;;;14.80;100.00
67840;BME280;54636;51.684;5.142;2022-12-31T15:07:21;100674.59;;;14.65;98.38
67840;BME280;54636;51.684;5.142;2022-12-31T15:12:43;100680.88;;;14.84;97.66
67840;BME280;54636;51.684;5.142;2022-12-31T15:18:16;100673.50;;;14.98;95.35
67840;BME280;54636;51.684;5.142;2022-12-31T15:21:19;100681.72;;;14.98;95.98
67840;BME280;54636;51.684;5.142;2022-12-31T15:23:51;100670.91;;;14.87;94.40
67840;BME280;54636;51.684;5.142;2022-12-31T15:26:23;100666.69;;;14.86;96.07
67840;BME280;54636;51.684;5.142;2022-12-31T15:29:03;100651.84;;;14.81;96.61
67840;BME280;54636;51.684;5.142;2022-12-31T15:31:33;100633.72;;;14.54;95.82
67840;BME280;54636;51.684;5.142;2022-12-31T15:34:05;100678.78;;;14.71;96.37
67840;BME280;54636;51.684;5.142;2022-12-31T15:36:35;100683.91;;;14.80;96.10
67840;BME280;54636;51.684;5.142;2022-12-31T15:41:44;100691.53;;;14.88;94.81
67840;BME280;54636;51.684;5.142;2022-12-31T15:44:48;100686.63;;;14.80;96.73
67840;BME280;54636;51.684;5.142;2022-12-31T15:47:35;100691.88;;;14.78;96.39
67840;BME280;54636;51.684;5.142;2022-12-31T15:50:07;100702.81;;;14.78;94.69
67840;BME280;54636;51.684;5.142;2022-12-31T15:52:43;100703.03;;;14.80;93.66
67840;BME280;54636;51.684;5.142;2022-12-31T15:55:45;100638.66;;;14.55;94.10
67840;BME280;54636;51.684;5.142;2022-12-31T15:58:19;100645.56;;;14.62;92.67
67840;BME280;54636;51.684;5.142;2022-12-31T16:03:42;100681.41;;;14.82;91.77
67840;BME280;54636;51.684;5.142;2022-12-31T16:06:13;100637.19;;;14.54;92.37
67840;BME280;54636;51.684;5.142;2022-12-31T16:08:43;100617.97;;;14.35;93.22
67840;BME280;54636;51.684;5.142;2022-12-31T16:11:09;100641.81;;;14.65;91.41
67840;BME280;54636;51.684;5.142;2022-12-31T16:13:40;100627.97;;;14.57;90.96
67840;BME280;54636;51.684;5.142;2022-12-31T16:16:19;100642.38;;;14.58;92.29
67840;BME280;54636;51.684;5.142;2022-12-31T16:18:45;100612.25;;;14.33;91.40
67840;BME280;54636;51.684;5.142;2022-12-31T16:21:33;100677.63;;;14.86;90.34
67840;BME280;54636;51.684;5.142;2022-12-31T16:24:05;100618.16;;;14.43;90.28
67840;BME280;54636;51.684;5.142;2022-12-31T16:26:45;100597.25;;;14.21;92.13
67840;BME280;54636;51.684;5.142;2022-12-31T16:29:17;100628.84;;;14.41;91.54
67840;BME280;54636;51.684;5.142;2022-12-31T16:31:44;100622.97;;;14.31;91.33
67840;BME280;54636;51.684;5.142;2022-12-31T16:34:23;100585.41;;;14.13;91.28
67840;BME280;54636;51.684;5.142;2022-12-31T16:37:03;100632.06;;;14.45;90.65
67840;BME280;54636;51.684;5.142;2022-12-31T16:39:34;100602.25;;;14.17;90.25
67840;BME280;54636;51.684;5.142;2022-12-31T16:44:34;100624.94;;;14.31;90.74
67840;BME280;54636;51.684;5.142;2022-12-31T16:47:00;100609.16;;;14.24;88.74
67840;BME280;54636;51.684;5.142;2022-12-31T16:49:28;100604.00;;;14.14;89.82
67840;BME280;54636;51.684;5.142;2022-12-31T16:52:17;100628.28;;;14.24;89.48
67840;BME280;54636;51.684;5.142;2022-12-31T16:54:49;100608.28;;;14.10;91.17
67840;BME280;54636;51.684;5.142;2022-12-31T16:57:20;100612.16;;;14.20;89.01
67840;BME280;54636;51.684;5.142;2022-12-31T16:59:51;100578.22;;;14.10;89.10
67840;BME280;54636;51.684;5.142;2022-12-31T17:02:25;100603.41;;;14.27;88.78
67840;BME280;54636;51.684;5.142;2022-12-31T17:04:52;100631.22;;;14.56;87.48
67840;BME280;54636;51.684;5.142;2022-12-31T17:10:07;100641.97;;;14.48;87.74
67840;BME280;54636;51.684;5.142;2022-12-31T17:12:46;100663.56;;;14.52;87.08
67840;BME280;54636;51.684;5.142;2022-12-31T17:15:24;100649.66;;;14.49;87.98
67840;BME280;54636;51.684;5.142;2022-12-31T17:17:55;100629.63;;;14.36;87.20
67840;BME280;54636;51.684;5.142;2022-12-31T17:20:25;100583.19;;;14.11;86.14
67840;BME280;54636;51.684;5.142;2022-12-31T17:22:58;100611.16;;;14.72;83.95